Main page
METAR-TAF:

METAR-TAF

Airports :

Tuzla International Airport

Tuzla, Bosnia and Herzegovina

latitude: 44-33N, longitude: 018-42E, elevation: 306 m

Current weather observation

The report was made 1 hour and 48 minutes ago, at 22:00 UTC
Wind 1 kt from variable directions
Temperature 17°C
Humidity 82%
Pressure 1014 hPa
Visibility 10 km or more
no clouds below 1500 m and no cumulonimbus

METAR: LQTZ 202200Z VRB01KT CAVOK 17/14 Q1014

Time: 01:48 (23:48 UTC)

Forecast

The report was made 6 hours and 48 minutes ago, at 17:00 UTC
Forecast valid from 20 at 18 UTC to 21 at 18 UTC
Wind 6 kt from the West
Visibility 10 km or more
no clouds below 1500 m and no cumulonimbus
Probability 30% :
Temporary
from 21 at 14 UTC to 21 at 16 UTC
Wind 10 kt from the West

TAF: LQTZ 201700Z 2018/2118 28006KT CAVOK TX31/2113Z TN15/2103Z PROB30 TEMPO 2114/2116 28010KT

Weather observations and forecasts of more than 4000 airports (METAR and TAF reports).

The available stations are represented by yellow and red dots on the map.

Hover mouse over dot to see the name of the station.

Then click to see weather observations and forecasts.

To change the map : click on the green buttons with a black cross to zoom in, on the green button with a dash to zoom out, or on the green arrows for adjacent maps.


METAR-TAF: